createdAt,value
2019-01-29T00:01:17.124Z,1.24
2019-01-29T00:02:17.042Z,1.20
2019-01-29T00:04:09.879Z,1.23
2019-01-29T00:05:09.741Z,1.20
2019-01-29T00:07:02.635Z,1.24
2019-01-29T00:08:02.491Z,1.16
2019-01-29T00:09:55.385Z,1.26
2019-01-29T00:10:55.234Z,1.20
2019-01-29T00:12:48.535Z,1.24
2019-01-29T00:13:48.419Z,1.27
2019-01-29T00:15:41.293Z,1.30
2019-01-29T00:16:41.153Z,1.23
2019-01-29T00:18:34.031Z,1.17
2019-01-29T00:19:33.896Z,1.20
2019-01-29T00:21:26.807Z,1.17
2019-01-29T00:22:33.240Z,1.10
2019-01-29T00:24:19.546Z,1.28
2019-01-29T00:25:19.427Z,1.23
2019-01-29T00:27:12.285Z,1.20
2019-01-29T00:28:12.141Z,1.16
2019-01-29T00:30:05.033Z,1.21
2019-01-29T00:31:04.927Z,1.20
2019-01-29T00:32:57.763Z,1.23
2019-01-29T00:33:57.649Z,1.13
2019-01-29T00:35:50.561Z,1.13
2019-01-29T00:36:50.390Z,1.10
2019-01-29T00:38:43.292Z,1.12
2019-01-29T00:39:43.131Z,1.13
2019-01-29T00:41:36.042Z,1.17
2019-01-29T00:42:35.897Z,1.12
2019-01-29T00:44:28.874Z,1.08
2019-01-29T00:45:28.754Z,0.99
2019-01-29T00:47:21.620Z,1.06
2019-01-29T00:48:21.492Z,1.08
2019-01-29T00:50:14.410Z,1.08
2019-01-29T00:51:14.237Z,1.08
2019-01-29T00:53:07.131Z,1.06
2019-01-29T00:54:06.991Z,1.16
2019-01-29T00:55:59.869Z,1.17
2019-01-29T00:56:59.750Z,1.20
2019-01-29T00:58:52.620Z,1.12
2019-01-29T00:59:52.568Z,1.09
2019-01-29T01:01:45.388Z,1.09
2019-01-29T01:02:45.240Z,1.13
2019-01-29T01:04:38.533Z,1.10
2019-01-29T01:05:38.402Z,1.16
2019-01-29T01:07:31.288Z,1.20
2019-01-29T01:08:31.144Z,1.23
2019-01-29T01:10:24.048Z,1.16
2019-01-29T01:11:23.898Z,1.12
2019-01-29T01:13:16.784Z,1.16
2019-01-29T01:14:16.642Z,1.13
2019-01-29T01:16:09.528Z,1.18
2019-01-29T01:17:09.400Z,1.09
2019-01-29T01:19:02.297Z,1.06
2019-01-29T01:20:02.147Z,1.10
2019-01-29T01:21:55.047Z,1.03
2019-01-29T01:22:54.899Z,1.06
2019-01-29T01:24:47.770Z,1.06
2019-01-29T01:25:47.649Z,1.09
2019-01-29T01:27:41.045Z,1.17
2019-01-29T01:28:40.919Z,1.13
2019-01-29T01:30:33.786Z,1.12
2019-01-29T01:31:33.655Z,1.12
2019-01-29T01:33:26.543Z,1.21
2019-01-29T01:34:26.415Z,1.28
2019-01-29T01:36:19.289Z,1.31
2019-01-29T01:37:19.149Z,1.28
2019-01-29T01:39:12.051Z,1.31
2019-01-29T01:40:11.913Z,1.34
2019-01-29T01:42:05.107Z,1.39
2019-01-29T01:43:04.973Z,1.35
2019-01-29T01:44:57.855Z,1.44
2019-01-29T01:45:57.729Z,1.42
2019-01-29T01:47:50.620Z,1.42
2019-01-29T01:48:50.479Z,1.48
2019-01-29T01:50:43.387Z,1.52
2019-01-29T01:51:43.257Z,1.48
2019-01-29T01:53:36.091Z,1.60
2019-01-29T01:54:35.979Z,1.59
2019-01-29T01:56:28.861Z,1.59
2019-01-29T01:57:28.707Z,1.60
2019-01-29T01:59:21.704Z,1.57
2019-01-29T02:00:21.589Z,1.56
2019-01-29T02:02:14.459Z,1.60
2019-01-29T02:03:14.323Z,1.59
2019-01-29T02:05:07.708Z,1.66
2019-01-29T02:06:07.578Z,1.66
2019-01-29T02:08:00.479Z,1.64
2019-01-29T02:09:00.322Z,1.66
2019-01-29T02:10:53.217Z,1.67
2019-01-29T02:11:53.076Z,1.71
2019-01-29T02:13:46.159Z,1.66
2019-01-29T02:14:46.048Z,1.71
2019-01-29T02:16:38.910Z,1.71
2019-01-29T02:17:38.802Z,1.69
2019-01-29T02:19:31.666Z,1.71
2019-01-29T02:20:31.532Z,1.73
2019-01-29T02:22:24.411Z,1.77
2019-01-29T02:23:24.274Z,1.71
2019-01-29T02:25:17.162Z,1.80
2019-01-29T02:26:17.034Z,1.81
2019-01-29T02:28:09.944Z,1.80
2019-01-29T02:29:09.818Z,1.75
2019-01-29T02:31:02.667Z,1.78
2019-01-29T02:32:02.534Z,1.74
2019-01-29T02:33:55.416Z,1.81
2019-01-29T02:34:55.274Z,1.81
2019-01-29T02:36:48.169Z,1.92
2019-01-29T02:37:48.020Z,1.85
2019-01-29T02:39:40.934Z,1.89
2019-01-29T02:40:40.774Z,1.89
2019-01-29T02:42:33.665Z,1.80
2019-01-29T02:43:33.528Z,1.80
2019-01-29T02:45:26.414Z,1.80
2019-01-29T02:46:26.285Z,1.81
2019-01-29T02:48:19.177Z,1.80
2019-01-29T02:49:19.028Z,1.78
2019-01-29T02:51:11.904Z,1.81
2019-01-29T02:52:11.798Z,1.91
2019-01-29T02:54:04.662Z,1.80
2019-01-29T02:55:04.523Z,1.81
2019-01-29T02:56:57.444Z,1.82
2019-01-29T02:57:57.272Z,1.92
2019-01-29T02:59:50.478Z,1.77
2019-01-29T03:00:50.325Z,1.81
2019-01-29T03:02:43.315Z,1.87
2019-01-29T03:03:43.203Z,1.84
2019-01-29T03:05:36.145Z,1.89
2019-01-29T03:06:35.935Z,1.89
2019-01-29T03:08:28.813Z,1.92
2019-01-29T03:09:28.681Z,1.91
2019-01-29T03:11:21.557Z,1.97
2019-01-29T03:12:21.435Z,1.95
2019-01-29T03:14:14.313Z,1.95
2019-01-29T03:15:14.181Z,1.95
2019-01-29T03:17:07.081Z,1.95
2019-01-29T03:18:06.943Z,1.95
2019-01-29T03:19:59.821Z,1.92
2019-01-29T03:20:59.675Z,2.00
2019-01-29T03:22:52.561Z,1.95
2019-01-29T03:23:52.457Z,2.03
2019-01-29T03:25:45.314Z,2.04
2019-01-29T03:26:45.193Z,1.99
2019-01-29T03:28:38.064Z,2.03
2019-01-29T03:29:37.929Z,2.06
2019-01-29T03:31:30.843Z,2.00
2019-01-29T03:32:30.675Z,2.00
2019-01-29T03:34:23.572Z,2.06
2019-01-29T03:35:23.429Z,2.01
2019-01-29T03:37:16.305Z,2.04
2019-01-29T03:38:16.199Z,2.04
2019-01-29T03:40:09.088Z,2.00
2019-01-29T03:41:08.930Z,1.92
2019-01-29T03:43:01.827Z,1.91
2019-01-29T03:44:01.683Z,1.92
2019-01-29T03:45:54.556Z,1.97
2019-01-29T03:46:54.480Z,2.01
2019-01-29T03:48:47.324Z,2.04
2019-01-29T03:49:47.191Z,2.04
2019-01-29T03:51:40.178Z,2.01
2019-01-29T03:52:39.927Z,2.11
2019-01-29T03:54:33.316Z,2.03
2019-01-29T03:55:33.194Z,2.01
2019-01-29T03:57:26.095Z,2.06
2019-01-29T03:58:25.945Z,2.04
2019-01-29T04:00:18.822Z,2.03
2019-01-29T04:01:18.709Z,2.11
2019-01-29T04:03:11.592Z,2.04
2019-01-29T04:04:11.428Z,2.04
2019-01-29T04:06:04.341Z,2.12
2019-01-29T04:07:04.184Z,2.10
2019-01-29T04:08:57.060Z,2.10
2019-01-29T04:09:56.941Z,2.06
2019-01-29T04:11:49.822Z,2.12
2019-01-29T04:12:49.690Z,2.06
2019-01-29T04:14:42.588Z,2.15
2019-01-29T04:15:42.433Z,2.07
2019-01-29T04:17:35.328Z,2.03
2019-01-29T04:18:35.184Z,2.06
2019-01-29T04:20:28.179Z,2.17
2019-01-29T04:21:28.034Z,2.10
2019-01-29T04:23:20.944Z,2.11
2019-01-29T04:24:20.784Z,2.03
2019-01-29T04:26:13.666Z,2.06
2019-01-29T04:27:13.560Z,2.07
2019-01-29T04:29:06.439Z,2.11
2019-01-29T04:30:06.285Z,2.06
2019-01-29T04:31:59.265Z,2.10
2019-01-29T04:32:59.164Z,2.11
2019-01-29T04:34:52.015Z,2.03
2019-01-29T04:35:51.884Z,2.10
2019-01-29T04:37:44.774Z,2.07
2019-01-29T04:38:44.633Z,2.10
2019-01-29T04:40:37.518Z,2.06
2019-01-29T04:41:37.413Z,2.07
2019-01-29T04:43:30.285Z,2.03
2019-01-29T04:44:30.159Z,2.01
2019-01-29T04:46:24.043Z,2.07
2019-01-29T04:47:23.907Z,2.07
2019-01-29T04:49:16.793Z,2.12
2019-01-29T04:50:16.670Z,2.11
2019-01-29T04:52:09.745Z,2.15
2019-01-29T04:53:09.416Z,2.07
2019-01-29T04:55:02.305Z,2.06
2019-01-29T04:56:02.159Z,2.12
2019-01-29T04:57:55.064Z,2.11
2019-01-29T04:58:54.914Z,2.11
2019-01-29T05:00:47.787Z,2.11
2019-01-29T05:01:47.682Z,2.10
2019-01-29T05:03:40.536Z,2.17
2019-01-29T05:04:40.413Z,2.15
2019-01-29T05:06:33.297Z,2.19
2019-01-29T05:07:33.181Z,2.11
2019-01-29T05:09:26.043Z,2.10
2019-01-29T05:10:25.906Z,2.11
2019-01-29T05:12:18.801Z,2.24
2019-01-29T05:13:18.696Z,2.10
2019-01-29T05:15:11.542Z,2.11
2019-01-29T05:16:11.407Z,2.12
2019-01-29T05:18:04.306Z,2.11
2019-01-29T05:19:04.166Z,2.03
2019-01-29T05:20:57.042Z,2.15
2019-01-29T05:21:56.908Z,2.15
2019-01-29T05:23:49.810Z,2.21
2019-01-29T05:24:49.673Z,2.25
2019-01-29T05:26:42.538Z,2.17
2019-01-29T05:27:42.400Z,2.15
2019-01-29T05:29:35.292Z,2.12
2019-01-29T05:30:35.152Z,2.11
2019-01-29T05:32:28.062Z,2.18
2019-01-29T05:33:27.904Z,2.07
2019-01-29T05:35:20.805Z,2.18
2019-01-29T05:36:20.654Z,2.14
2019-01-29T05:38:13.538Z,2.17
2019-01-29T05:39:13.414Z,2.04
2019-01-29T05:41:06.284Z,2.03
2019-01-29T05:42:06.157Z,2.04
2019-01-29T05:43:59.082Z,2.14
2019-01-29T05:44:58.910Z,2.07
2019-01-29T05:46:51.785Z,2.03
2019-01-29T05:47:51.651Z,2.07
2019-01-29T05:49:44.524Z,2.07
2019-01-29T05:50:44.400Z,2.03
2019-01-29T05:52:37.428Z,2.11
2019-01-29T05:53:37.148Z,2.07
2019-01-29T05:55:30.043Z,2.14
2019-01-29T05:56:29.909Z,2.04
2019-01-29T05:58:22.848Z,2.01
2019-01-29T05:59:22.655Z,2.06
2019-01-29T06:01:15.543Z,2.07
2019-01-29T06:02:15.399Z,2.00
2019-01-29T06:04:08.783Z,2.00
2019-01-29T06:05:08.665Z,2.11
2019-01-29T06:07:01.557Z,2.01
2019-01-29T06:08:01.405Z,2.11
2019-01-29T06:09:54.209Z,2.11
2019-01-29T06:10:54.089Z,2.10
2019-01-29T06:12:46.951Z,2.14
2019-01-29T06:13:46.801Z,2.10
2019-01-29T06:15:39.703Z,2.11
2019-01-29T06:16:39.564Z,2.07
2019-01-29T06:18:32.444Z,2.14
2019-01-29T06:19:32.303Z,2.10
2019-01-29T06:21:25.202Z,2.12
2019-01-29T06:22:25.062Z,2.11
2019-01-29T06:24:25.548Z,2.12
2019-01-29T06:25:18.344Z,2.11
2019-01-29T06:27:11.244Z,2.12
2019-01-29T06:28:11.075Z,2.06
2019-01-29T06:30:03.947Z,2.04
2019-01-29T06:31:03.832Z,2.04
2019-01-29T06:32:56.705Z,2.07
2019-01-29T06:33:56.598Z,2.12
2019-01-29T06:35:49.453Z,2.06
2019-01-29T06:36:50.871Z,1.95
2019-01-29T06:38:42.218Z,2.12
2019-01-29T06:39:42.069Z,2.18
2019-01-29T06:41:34.951Z,2.04
2019-01-29T06:42:34.828Z,2.10
2019-01-29T06:44:27.726Z,2.22
2019-01-29T06:45:27.576Z,2.11
2019-01-29T06:47:20.445Z,2.15
2019-01-29T06:48:20.327Z,2.14
2019-01-29T06:50:13.202Z,2.10
2019-01-29T06:51:13.080Z,2.10
2019-01-29T06:53:05.973Z,2.22
2019-01-29T06:54:05.845Z,2.17
2019-01-29T06:55:58.707Z,2.14
2019-01-29T06:56:58.563Z,2.17
2019-01-29T06:58:51.454Z,2.17
2019-01-29T06:59:51.334Z,2.15
2019-01-29T07:01:44.198Z,2.21
2019-01-29T07:02:44.060Z,2.11
2019-01-29T07:04:36.973Z,2.25
2019-01-29T07:05:36.808Z,2.25
2019-01-29T07:07:29.702Z,2.19
2019-01-29T07:08:29.580Z,2.28
2019-01-29T07:10:22.640Z,2.28
2019-01-29T07:11:22.534Z,2.17
2019-01-29T07:13:15.418Z,2.25
2019-01-29T07:14:15.263Z,2.24
2019-01-29T07:16:08.145Z,2.29
2019-01-29T07:17:08.039Z,2.22
2019-01-29T07:19:00.911Z,2.29
2019-01-29T07:20:00.765Z,2.28
2019-01-29T07:21:53.653Z,2.24
2019-01-29T07:22:53.517Z,2.24
2019-01-29T07:24:46.513Z,2.25
2019-01-29T07:25:46.274Z,2.29
2019-01-29T07:27:39.148Z,2.29
2019-01-29T07:28:39.067Z,2.19
2019-01-29T07:30:31.917Z,2.22
2019-01-29T07:31:31.789Z,2.29
2019-01-29T07:33:24.657Z,2.32
2019-01-29T07:34:24.513Z,2.30
2019-01-29T07:36:17.403Z,2.37
2019-01-29T07:37:22.075Z,2.45
2019-01-29T07:39:10.139Z,2.40
2019-01-29T07:40:10.085Z,2.43
2019-01-29T07:42:02.895Z,2.43
2019-01-29T07:43:02.795Z,2.29
2019-01-29T07:44:55.658Z,2.39
2019-01-29T07:45:55.515Z,2.39
2019-01-29T07:47:48.467Z,2.51
2019-01-29T07:48:48.280Z,2.47
2019-01-29T07:50:41.655Z,2.39
2019-01-29T07:51:41.518Z,2.36
2019-01-29T07:53:34.429Z,2.47
2019-01-29T07:54:34.278Z,2.48
2019-01-29T07:56:27.145Z,2.50
2019-01-29T07:57:27.024Z,2.48
2019-01-29T07:59:32.624Z,2.53
2019-01-29T08:00:19.869Z,2.53
2019-01-29T08:02:13.280Z,2.57
2019-01-29T08:03:13.146Z,2.58
2019-01-29T08:05:06.029Z,2.57
2019-01-29T08:06:05.884Z,2.58
2019-01-29T08:07:58.772Z,2.57
2019-01-29T08:08:58.638Z,2.63
2019-01-29T08:10:51.517Z,2.61
2019-01-29T08:11:51.378Z,2.73
2019-01-29T08:13:44.270Z,2.65
2019-01-29T08:14:44.142Z,2.61
2019-01-29T08:16:37.034Z,2.69
2019-01-29T08:17:36.886Z,2.63
2019-01-29T08:19:29.780Z,2.72
2019-01-29T08:20:29.646Z,2.61
2019-01-29T08:22:22.528Z,2.63
2019-01-29T08:23:22.382Z,2.66
2019-01-29T08:25:15.270Z,2.63
2019-01-29T08:26:15.128Z,2.66
2019-01-29T08:28:08.112Z,2.71
2019-01-29T08:29:07.998Z,2.68
2019-01-29T08:31:00.898Z,2.69
2019-01-29T08:32:00.749Z,2.66
2019-01-29T08:33:53.615Z,2.68
2019-01-29T08:34:53.490Z,2.66
2019-01-29T08:36:46.403Z,2.65
2019-01-29T08:37:46.228Z,2.60
2019-01-29T08:39:39.127Z,2.68
2019-01-29T08:40:38.985Z,2.68
2019-01-29T08:42:31.881Z,2.65
2019-01-29T08:43:31.774Z,2.68
2019-01-29T08:45:24.615Z,2.72
2019-01-29T08:46:24.481Z,2.69
2019-01-29T08:48:17.421Z,2.69
2019-01-29T08:49:17.234Z,2.71
2019-01-29T08:51:10.113Z,2.63
2019-01-29T08:52:11.629Z,2.63
2019-01-29T08:54:02.853Z,2.66
2019-01-29T08:55:10.451Z,2.69
2019-01-29T08:56:55.648Z,2.76
2019-01-29T08:57:55.481Z,2.75
2019-01-29T08:59:48.394Z,2.81
2019-01-29T09:00:48.237Z,2.81
2019-01-29T09:02:41.177Z,2.72
2019-01-29T09:03:40.981Z,2.71
2019-01-29T09:05:33.861Z,2.84
2019-01-29T09:06:33.733Z,2.78
2019-01-29T09:08:26.614Z,2.84
2019-01-29T09:09:26.487Z,2.84
2019-01-29T09:11:19.365Z,2.86
2019-01-29T09:12:19.221Z,2.78
2019-01-29T09:14:12.142Z,2.72
2019-01-29T09:15:11.991Z,2.73
2019-01-29T09:17:04.862Z,2.69
2019-01-29T09:18:04.725Z,2.72
2019-01-29T09:19:57.608Z,2.81
2019-01-29T09:20:57.499Z,2.73
2019-01-29T09:22:50.275Z,2.86
2019-01-29T09:23:50.141Z,2.84
2019-01-29T09:25:42.899Z,2.91
2019-01-29T09:26:42.784Z,2.81
2019-01-29T09:28:35.569Z,2.89
2019-01-29T09:29:35.437Z,2.94
2019-01-29T09:31:28.207Z,3.09
2019-01-29T09:32:28.080Z,3.08
2019-01-29T09:34:20.855Z,3.02
2019-01-29T09:35:20.733Z,3.08
2019-01-29T09:37:13.504Z,3.15
2019-01-29T09:38:13.386Z,3.00
2019-01-29T09:40:06.140Z,3.02
2019-01-29T09:41:06.016Z,3.04
2019-01-29T09:42:58.791Z,3.15
2019-01-29T09:43:58.681Z,3.07
2019-01-29T09:45:51.744Z,3.07
2019-01-29T09:46:51.603Z,3.07
2019-01-29T09:48:44.656Z,3.05
2019-01-29T09:49:44.490Z,3.09
2019-01-29T09:51:37.280Z,3.12
2019-01-29T09:52:37.110Z,3.20
2019-01-29T09:54:30.499Z,3.46
2019-01-29T09:55:30.366Z,3.49
2019-01-29T09:57:23.253Z,3.56
2019-01-29T09:58:23.134Z,3.60
2019-01-29T10:00:15.909Z,3.81
2019-01-29T10:01:15.772Z,4.03
2019-01-29T10:03:08.545Z,4.05
2019-01-29T10:04:08.414Z,4.10
2019-01-29T10:06:01.200Z,4.18
2019-01-29T10:07:01.083Z,4.06
2019-01-29T10:08:53.958Z,3.92
2019-01-29T10:09:53.708Z,4.02
2019-01-29T10:11:46.499Z,4.00
2019-01-29T10:12:46.370Z,3.88
2019-01-29T10:14:39.137Z,3.69
2019-01-29T10:15:39.010Z,3.60
2019-01-29T10:17:31.787Z,3.60
2019-01-29T10:18:31.680Z,3.66
2019-01-29T10:20:24.529Z,3.84
2019-01-29T10:21:24.407Z,3.80
2019-01-29T10:23:17.179Z,3.81
2019-01-29T10:24:17.065Z,3.74
2019-01-29T10:26:09.849Z,3.59
2019-01-29T10:27:09.715Z,3.59
2019-01-29T10:29:02.575Z,3.62
2019-01-29T10:30:02.455Z,3.55
2019-01-29T10:31:55.244Z,3.54
2019-01-29T10:32:55.100Z,3.60
2019-01-29T10:34:47.895Z,3.55
2019-01-29T10:35:47.745Z,3.63
2019-01-29T10:37:40.526Z,3.72
2019-01-29T10:38:40.407Z,3.76
2019-01-29T10:40:33.263Z,3.84
2019-01-29T10:41:33.147Z,3.69
2019-01-29T10:43:26.497Z,3.84
2019-01-29T10:44:25.803Z,3.81
2019-01-29T10:46:18.568Z,3.92
2019-01-29T10:47:18.462Z,4.02
2019-01-29T10:49:11.213Z,4.03
2019-01-29T10:50:11.100Z,4.00
2019-01-29T10:52:03.861Z,3.98
2019-01-29T10:53:03.743Z,3.91
2019-01-29T10:54:58.045Z,4.05
2019-01-29T10:55:56.478Z,4.05
2019-01-29T10:57:49.371Z,4.05
2019-01-29T10:58:49.256Z,4.09
2019-01-29T11:00:42.101Z,4.18
2019-01-29T11:01:41.984Z,4.18
2019-01-29T11:03:34.839Z,4.12
2019-01-29T11:04:34.628Z,4.12
2019-01-29T11:06:27.502Z,4.23
2019-01-29T11:07:27.377Z,4.18
2019-01-29T11:09:25.346Z,4.10
2019-01-29T11:10:20.024Z,4.20
2019-01-29T11:12:12.822Z,4.05
2019-01-29T11:13:12.682Z,4.09
2019-01-29T11:15:05.444Z,4.00
2019-01-29T11:16:05.322Z,3.92
2019-01-29T11:17:58.109Z,3.94
2019-01-29T11:19:03.143Z,3.92
2019-01-29T11:20:50.846Z,4.06
2019-01-29T11:21:50.711Z,4.05
2019-01-29T11:23:43.605Z,3.94
2019-01-29T11:24:45.079Z,3.96
2019-01-29T11:26:36.236Z,3.94
2019-01-29T11:27:36.116Z,4.00
2019-01-29T11:29:28.901Z,4.03
2019-01-29T11:30:28.757Z,3.92
2019-01-29T11:32:21.634Z,4.05
2019-01-29T11:33:21.503Z,4.03
2019-01-29T11:35:14.336Z,4.10
2019-01-29T11:36:14.155Z,4.21
2019-01-29T11:38:07.064Z,4.23
2019-01-29T11:39:06.911Z,4.21
2019-01-29T11:40:59.681Z,4.24
2019-01-29T11:41:59.565Z,4.27
2019-01-29T11:43:55.402Z,4.42
2019-01-29T11:44:55.275Z,4.43
2019-01-29T11:46:48.045Z,4.54
2019-01-29T11:47:47.939Z,4.42
2019-01-29T11:49:40.825Z,4.48
2019-01-29T11:50:40.669Z,4.59
2019-01-29T11:52:33.449Z,4.61
2019-01-29T11:53:33.313Z,4.66
2019-01-29T11:55:26.215Z,4.51
2019-01-29T11:56:26.078Z,4.39
2019-01-29T11:58:18.942Z,4.13
2019-01-29T11:59:18.823Z,4.09
2019-01-29T12:01:11.597Z,4.12
2019-01-29T12:02:11.468Z,4.10
2019-01-29T12:04:04.360Z,4.17
2019-01-29T12:05:04.223Z,4.23
2019-01-29T12:06:57.093Z,3.92
2019-01-29T12:07:56.978Z,3.94
2019-01-29T12:09:49.756Z,3.85
2019-01-29T12:10:49.617Z,3.81
2019-01-29T12:12:42.515Z,3.80
2019-01-29T12:13:42.360Z,3.85
2019-01-29T12:15:35.258Z,3.88
2019-01-29T12:16:35.110Z,3.90
2019-01-29T12:18:27.885Z,3.92
2019-01-29T12:19:27.759Z,4.02
2019-01-29T12:21:20.656Z,4.12
2019-01-29T12:22:20.540Z,4.12
2019-01-29T12:24:13.413Z,4.03
2019-01-29T12:25:13.262Z,4.05
2019-01-29T12:27:06.048Z,4.05
2019-01-29T12:28:05.905Z,4.08
2019-01-29T12:29:58.776Z,4.03
2019-01-29T12:30:58.670Z,4.10
2019-01-29T12:32:51.564Z,4.28
2019-01-29T12:33:51.394Z,4.30
2019-01-29T12:35:44.278Z,4.39
2019-01-29T12:36:44.146Z,4.31
2019-01-29T12:38:37.026Z,4.28
2019-01-29T12:39:36.918Z,4.35
2019-01-29T12:41:29.768Z,4.34
2019-01-29T12:42:29.640Z,4.27
2019-01-29T12:44:22.564Z,4.45
2019-01-29T12:45:22.386Z,4.43
2019-01-29T12:47:15.281Z,4.48
2019-01-29T12:48:15.142Z,4.56
2019-01-29T12:50:08.044Z,4.63
2019-01-29T12:51:07.890Z,4.54
2019-01-29T12:53:00.778Z,4.48
2019-01-29T12:54:00.649Z,4.59
2019-01-29T12:55:53.532Z,4.53
2019-01-29T12:56:53.392Z,4.53
2019-01-29T12:58:46.685Z,4.31
2019-01-29T12:59:46.578Z,4.35
2019-01-29T13:01:39.437Z,4.36
2019-01-29T13:02:39.309Z,4.30
2019-01-29T13:04:32.217Z,4.13
2019-01-29T13:05:32.833Z,4.05
2019-01-29T13:07:24.935Z,4.05
2019-01-29T13:08:24.805Z,4.06
2019-01-29T13:10:17.678Z,4.10
2019-01-29T13:11:17.543Z,4.09
2019-01-29T13:13:10.453Z,4.08
2019-01-29T13:14:10.293Z,4.00
2019-01-29T13:16:03.203Z,4.05
2019-01-29T13:17:03.043Z,4.03
2019-01-29T13:18:55.932Z,4.03
2019-01-29T13:19:55.799Z,4.10
2019-01-29T13:21:48.676Z,4.06
2019-01-29T13:22:48.561Z,4.08
2019-01-29T13:24:41.427Z,3.96
2019-01-29T13:25:41.295Z,3.91
2019-01-29T13:27:34.616Z,3.92
2019-01-29T13:28:34.463Z,4.06
2019-01-29T13:30:27.358Z,4.21
2019-01-29T13:31:27.210Z,4.23
2019-01-29T13:33:20.097Z,4.59
2019-01-29T13:34:19.954Z,4.59
2019-01-29T13:36:12.837Z,4.67
2019-01-29T13:37:12.703Z,4.67
2019-01-29T13:39:05.587Z,4.74
2019-01-29T13:40:05.511Z,4.64
2019-01-29T13:41:58.338Z,4.49
2019-01-29T13:42:58.215Z,4.45
2019-01-29T13:44:51.106Z,4.43
2019-01-29T13:45:50.957Z,4.43
2019-01-29T13:47:43.841Z,4.34
2019-01-29T13:48:43.768Z,4.28
2019-01-29T13:50:36.616Z,4.26
2019-01-29T13:51:36.478Z,4.23
2019-01-29T13:53:29.335Z,4.36
2019-01-29T13:54:29.219Z,4.31
2019-01-29T13:56:22.099Z,4.27
2019-01-29T13:57:21.974Z,4.30
2019-01-29T13:59:14.840Z,4.18
2019-01-29T14:00:14.709Z,4.23
2019-01-29T14:02:07.618Z,4.21
2019-01-29T14:03:07.460Z,4.26
2019-01-29T14:05:00.336Z,4.30
2019-01-29T14:06:00.202Z,4.28
2019-01-29T14:07:53.121Z,4.20
2019-01-29T14:08:53.689Z,4.31
2019-01-29T14:10:45.844Z,4.36
2019-01-29T14:11:45.704Z,4.34
2019-01-29T14:13:38.592Z,4.36
2019-01-29T14:14:38.479Z,4.38
2019-01-29T14:16:31.358Z,4.49
2019-01-29T14:17:31.205Z,4.46
2019-01-29T14:19:24.080Z,4.43
2019-01-29T14:20:24.023Z,4.42
2019-01-29T14:22:16.895Z,4.59
2019-01-29T14:23:16.710Z,4.51
2019-01-29T14:25:09.601Z,4.64
2019-01-29T14:26:09.481Z,4.59
2019-01-29T14:28:02.328Z,4.59
2019-01-29T14:29:02.209Z,4.59
2019-01-29T14:30:55.077Z,4.43
2019-01-29T14:31:54.947Z,4.45
2019-01-29T14:33:47.833Z,4.46
2019-01-29T14:34:47.697Z,4.53
2019-01-29T14:36:41.113Z,4.43
2019-01-29T14:37:42.413Z,4.48
2019-01-29T14:39:33.857Z,4.46
2019-01-29T14:40:33.705Z,4.61
2019-01-29T14:42:26.588Z,4.63
2019-01-29T14:43:26.479Z,4.57
2019-01-29T14:45:19.341Z,4.63
2019-01-29T14:46:19.515Z,4.67
2019-01-29T14:48:12.101Z,4.54
2019-01-29T14:49:11.979Z,4.61
2019-01-29T14:51:04.845Z,4.43
2019-01-29T14:52:04.717Z,4.51
2019-01-29T14:53:57.601Z,4.26
2019-01-29T14:54:57.454Z,4.21
2019-01-29T14:56:56.650Z,4.17
2019-01-29T14:57:50.225Z,4.09
2019-01-29T14:59:43.089Z,4.03
2019-01-29T15:00:42.979Z,4.06
2019-01-29T15:02:35.848Z,4.10
2019-01-29T15:03:35.708Z,3.87
2019-01-29T15:05:28.590Z,3.88
2019-01-29T15:06:32.652Z,3.94
2019-01-29T15:08:21.359Z,3.87
2019-01-29T15:09:21.273Z,3.80
2019-01-29T15:11:14.098Z,3.84
2019-01-29T15:12:13.956Z,3.81
2019-01-29T15:14:06.838Z,3.80
2019-01-29T15:15:06.706Z,3.74
2019-01-29T15:16:59.600Z,3.63
2019-01-29T15:17:59.460Z,3.51
2019-01-29T15:19:52.337Z,3.54
2019-01-29T15:20:52.211Z,3.36
2019-01-29T15:22:45.083Z,3.35
2019-01-29T15:23:44.968Z,3.33
2019-01-29T15:25:37.844Z,3.26
2019-01-29T15:26:37.708Z,3.14
2019-01-29T15:28:30.583Z,3.12
2019-01-29T15:29:30.467Z,3.14
2019-01-29T15:31:23.329Z,3.07
2019-01-29T15:32:23.192Z,3.08
2019-01-29T15:34:16.084Z,3.07
2019-01-29T15:35:15.958Z,3.07
2019-01-29T15:37:08.836Z,2.94
2019-01-29T15:38:08.724Z,2.90
2019-01-29T15:40:01.519Z,2.86
2019-01-29T15:41:01.360Z,2.78
2019-01-29T15:42:56.100Z,2.73
2019-01-29T15:43:54.202Z,2.72
2019-01-29T15:45:47.084Z,2.73
2019-01-29T15:46:46.954Z,2.82
2019-01-29T15:48:39.848Z,2.75
2019-01-29T15:49:39.853Z,2.76
2019-01-29T15:51:32.602Z,2.69
2019-01-29T15:52:32.462Z,2.72
2019-01-29T15:54:25.359Z,2.73
2019-01-29T15:55:25.200Z,2.73
2019-01-29T15:57:18.111Z,2.68
2019-01-29T15:58:17.958Z,2.69
2019-01-29T16:00:10.879Z,2.66
2019-01-29T16:01:10.703Z,2.66
2019-01-29T16:03:03.575Z,2.65
2019-01-29T16:04:03.453Z,2.68
2019-01-29T16:05:56.325Z,2.68
2019-01-29T16:06:56.197Z,2.63
2019-01-29T16:08:49.105Z,2.71
2019-01-29T16:09:48.939Z,2.68
2019-01-29T16:11:41.834Z,2.72
2019-01-29T16:12:41.707Z,2.72
2019-01-29T16:14:35.629Z,2.65
2019-01-29T16:15:35.467Z,2.61
2019-01-29T16:17:28.349Z,2.57
2019-01-29T16:18:28.219Z,2.58
2019-01-29T16:20:21.107Z,2.53
2019-01-29T16:21:20.988Z,2.55
2019-01-29T16:23:13.859Z,2.55
2019-01-29T16:24:13.715Z,2.51
2019-01-29T16:26:06.597Z,2.53
2019-01-29T16:27:07.199Z,2.51
2019-01-29T16:28:59.356Z,2.55
2019-01-29T16:29:59.470Z,2.48
2019-01-29T16:31:52.236Z,2.55
2019-01-29T16:32:52.166Z,2.61
2019-01-29T16:34:44.949Z,2.58
2019-01-29T16:35:44.827Z,2.53
2019-01-29T16:37:38.234Z,2.57
2019-01-29T16:38:38.080Z,2.60
2019-01-29T16:40:31.808Z,2.61
2019-01-29T16:41:31.647Z,2.55
2019-01-29T16:43:24.566Z,2.58
2019-01-29T16:44:24.456Z,2.50
2019-01-29T16:46:17.276Z,2.58
2019-01-29T16:47:17.158Z,2.50
2019-01-29T16:49:10.034Z,2.47
2019-01-29T16:50:09.908Z,2.37
2019-01-29T16:52:02.809Z,2.37
2019-01-29T16:53:02.654Z,2.32
2019-01-29T16:54:55.537Z,2.29
2019-01-29T16:55:55.398Z,2.24
2019-01-29T16:57:48.282Z,2.07
2019-01-29T16:58:48.154Z,2.00
2019-01-29T17:00:41.030Z,2.07
2019-01-29T17:01:40.940Z,2.12
2019-01-29T17:03:33.779Z,2.11
2019-01-29T17:04:33.646Z,2.17
2019-01-29T17:06:26.518Z,2.00
2019-01-29T17:07:26.398Z,2.06
2019-01-29T17:09:19.274Z,2.00
2019-01-29T17:10:19.159Z,2.01
2019-01-29T17:12:12.027Z,1.95
2019-01-29T17:13:11.920Z,1.93
2019-01-29T17:15:06.436Z,1.97
2019-01-29T17:16:06.283Z,1.92
2019-01-29T17:17:59.189Z,1.77
2019-01-29T17:18:59.047Z,1.75
2019-01-29T17:20:52.235Z,1.63
2019-01-29T17:21:52.093Z,1.60
2019-01-29T17:23:44.975Z,1.62
2019-01-29T17:24:44.854Z,1.64
2019-01-29T17:26:37.729Z,1.64
2019-01-29T17:27:40.318Z,1.60
2019-01-29T17:29:30.460Z,1.46
2019-01-29T17:30:30.350Z,1.46
2019-01-29T17:32:30.348Z,1.46
2019-01-29T17:33:23.086Z,1.44
2019-01-29T17:35:15.955Z,1.44
2019-01-29T17:36:15.839Z,1.45
2019-01-29T17:38:08.819Z,1.42
2019-01-29T17:39:08.589Z,1.27
2019-01-29T17:41:01.471Z,1.36
2019-01-29T17:42:01.332Z,1.36
2019-01-29T17:43:54.355Z,1.35
2019-01-29T17:44:54.187Z,1.30
2019-01-29T17:46:47.081Z,1.31
2019-01-29T17:47:46.940Z,1.21
2019-01-29T17:49:39.822Z,1.28
2019-01-29T17:50:39.690Z,1.27
2019-01-29T17:52:32.493Z,1.13
2019-01-29T17:53:32.370Z,0.94
2019-01-29T17:55:25.248Z,1.09
2019-01-29T17:56:25.085Z,1.10
2019-01-29T17:58:17.967Z,1.18
2019-01-29T17:59:17.855Z,1.16
2019-01-29T18:01:10.745Z,1.20
2019-01-29T18:02:10.608Z,1.13
2019-01-29T18:04:03.488Z,1.10
2019-01-29T18:05:03.326Z,0.96
2019-01-29T18:06:56.220Z,0.87
2019-01-29T18:07:56.078Z,0.87
2019-01-29T18:09:48.971Z,0.82
2019-01-29T18:10:48.836Z,0.90
2019-01-29T18:12:41.736Z,0.91
2019-01-29T18:13:41.607Z,0.96
2019-01-29T18:15:34.460Z,0.92
2019-01-29T18:16:34.332Z,0.82
2019-01-29T18:18:27.235Z,0.85
2019-01-29T18:19:27.210Z,0.76
2019-01-29T18:21:19.954Z,0.78
2019-01-29T18:22:19.848Z,0.80
2019-01-29T18:24:12.722Z,0.80
2019-01-29T18:25:12.588Z,0.84
2019-01-29T18:27:05.971Z,0.84
2019-01-29T18:28:08.445Z,0.73
2019-01-29T18:29:58.729Z,0.78
2019-01-29T18:30:58.589Z,0.76
2019-01-29T18:32:51.479Z,0.82
2019-01-29T18:33:51.353Z,0.76
2019-01-29T18:35:44.210Z,0.88
2019-01-29T18:36:44.093Z,0.81
2019-01-29T18:38:36.966Z,0.82
2019-01-29T18:39:36.846Z,0.90
2019-01-29T18:41:29.767Z,0.84
2019-01-29T18:42:29.587Z,0.80
2019-01-29T18:44:22.487Z,0.78
2019-01-29T18:45:22.424Z,0.78
2019-01-29T18:47:15.253Z,0.74
2019-01-29T18:48:15.110Z,0.72
2019-01-29T18:50:08.013Z,0.78
2019-01-29T18:51:07.865Z,0.76
2019-01-29T18:53:00.736Z,0.80
2019-01-29T18:54:00.583Z,0.81
2019-01-29T18:55:53.474Z,0.80
2019-01-29T18:56:53.336Z,0.84
2019-01-29T18:58:46.223Z,0.81
2019-01-29T18:59:46.088Z,0.66
2019-01-29T19:01:38.997Z,0.70
2019-01-29T19:02:38.847Z,0.66
2019-01-29T19:04:31.721Z,0.56
2019-01-29T19:05:31.597Z,0.48
2019-01-29T19:07:24.478Z,0.47
2019-01-29T19:08:24.341Z,0.50
2019-01-29T19:10:17.234Z,0.47